TimeEDT,TemperatureF,Dew PointF,Humidity,Sea Level PressureIn,VisibilityMPH,Wind Direction,Wind SpeedMPH,Gust SpeedMPH,PrecipitationIn,Events,Conditions,WindDirDegrees,DateUTC
12:51 AM,59.0,50.0,72,30.12,10.0,Calm,Calm,-,N/A,,Clear,0,2012-10-25 04:51:00
1:51 AM,57.0,50.0,77,30.12,10.0,Calm,Calm,-,N/A,,Scattered Clouds,0,2012-10-25 05:51:00
2:51 AM,57.9,50.0,75,30.12,10.0,Calm,Calm,-,N/A,,Mostly Cloudy,0,2012-10-25 06:51:00
3:51 AM,55.9,48.9,77,30.10,10.0,Calm,Calm,-,N/A,,Partly Cloudy,0,2012-10-25 07:51:00
4:51 AM,57.0,48.9,74,30.10,10.0,Calm,Calm,-,N/A,,Clear,0,2012-10-25 08:51:00
5:51 AM,55.0,48.0,77,30.10,10.0,Calm,Calm,-,N/A,,Partly Cloudy,0,2012-10-25 09:51:00
6:51 AM,54.0,48.0,80,30.12,10.0,Calm,Calm,-,N/A,,Partly Cloudy,0,2012-10-25 10:51:00
7:51 AM,54.0,48.0,80,30.13,10.0,Calm,Calm,-,N/A,,Partly Cloudy,0,2012-10-25 11:51:00
8:51 AM,55.0,48.0,77,30.14,7.0,Calm,Calm,-,N/A,,Clear,0,2012-10-25 12:51:00
9:51 AM,62.1,51.1,67,30.14,7.0,SE,3.5,-,0.97,,Clear,140,2012-10-25 13:51:00
10:51 AM,68.0,50.0,52,30.13,9.0,SSE,4.6,-,N/A,,Partly Cloudy,160,2012-10-25 14:51:00
12:51 PM,78.1,46.0,32,30.09,10.0,SSW,9.2,-,N/A,,Clear,210,2012-10-25 16:51:00
1:51 PM,80.1,46.0,30,30.07,10.0,South,11.5,-,N/A,,Clear,170,2012-10-25 17:51:00
2:51 PM,81.0,44.1,27,30.05,10.0,South,6.9,-,N/A,,Clear,180,2012-10-25 18:51:00
3:51 PM,82.0,43.0,25,30.04,10.0,SSW,8.1,-,N/A,,Clear,210,2012-10-25 19:51:00
4:51 PM,81.0,44.1,27,30.02,10.0,South,9.2,-,N/A,,Clear,170,2012-10-25 20:51:00
5:51 PM,80.1,44.1,28,30.03,10.0,South,6.9,-,N/A,,Clear,180,2012-10-25 21:51:00
6:51 PM,75.0,44.1,33,30.03,10.0,SSE,5.8,-,N/A,,Partly Cloudy,160,2012-10-25 22:51:00
7:51 PM,70.0,46.0,42,30.04,10.0,SSE,4.6,-,N/A,,Partly Cloudy,150,2012-10-25 23:51:00
8:51 PM,69.8,46.4,43,30.02,10.0,Calm,Calm,-,N/A,,Clear,0,2012-10-26 00:51:00
9:51 PM,69.1,48.0,47,30.04,10.0,South,4.6,-,N/A,,Clear,170,2012-10-26 01:51:00
10:51 PM,66.0,50.0,56,30.03,10.0,SSE,5.8,-,N/A,,Clear,160,2012-10-26 02:51:00
11:51 PM,64.4,51.8,64,30.03,10.0,SSE,5.8,-,N/A,,Clear,160,2012-10-26 03:51:00